createdAt,value
2023-07-18T00:01:17.254Z,4.65
2023-07-18T00:03:45.349Z,4.68
2023-07-18T00:06:13.098Z,5.47
2023-07-18T00:08:42.442Z,4.80
2023-07-18T00:11:10.185Z,3.80
2023-07-18T00:13:37.954Z,4.32
2023-07-18T00:16:06.086Z,4.05
2023-07-18T00:18:34.207Z,5.55
2023-07-18T00:21:02.946Z,5.57
2023-07-18T00:23:31.569Z,4.05
2023-07-18T00:26:00.672Z,5.47
2023-07-18T00:28:29.570Z,4.63
2023-07-18T00:30:57.446Z,7.03
2023-07-18T00:33:25.182Z,5.05
2023-07-18T00:35:53.389Z,6.05
2023-07-18T00:38:21.621Z,6.53
2023-07-18T00:40:50.184Z,5.10
2023-07-18T00:43:20.856Z,6.95
2023-07-18T00:45:50.382Z,4.72
2023-07-18T00:48:18.558Z,6.50
2023-07-18T00:50:46.283Z,4.40
2023-07-18T00:53:14.298Z,5.40
2023-07-18T00:55:42.710Z,5.18
2023-07-18T00:58:10.863Z,5.72
2023-07-18T01:00:42.611Z,4.50
2023-07-18T01:03:10.362Z,6.20
2023-07-18T01:05:40.200Z,3.92
2023-07-18T01:08:07.991Z,5.70
2023-07-18T01:10:36.005Z,4.90
2023-07-18T01:13:03.854Z,7.28
2023-07-18T01:15:35.845Z,7.22
2023-07-18T01:18:08.329Z,3.80
2023-07-18T01:20:37.272Z,4.13
2023-07-18T01:23:06.936Z,5.38
2023-07-18T01:25:35.694Z,2.88
2023-07-18T01:28:04.259Z,3.88
2023-07-18T01:30:32.486Z,4.05
2023-07-18T01:33:00.678Z,3.80
2023-07-18T01:35:29.660Z,4.00
2023-07-18T01:37:58.528Z,4.05
2023-07-18T01:40:28.026Z,3.78
2023-07-18T01:42:56.733Z,4.68
2023-07-18T01:45:25.573Z,5.30
2023-07-18T01:47:53.766Z,3.90
2023-07-18T01:50:22.140Z,4.18
2023-07-18T01:52:50.051Z,4.35
2023-07-18T01:55:18.133Z,4.07
2023-07-18T01:57:48.481Z,5.70
2023-07-18T02:00:21.917Z,5.07
2023-07-18T02:02:52.453Z,3.22
2023-07-18T02:05:22.734Z,3.92
2023-07-18T02:07:50.644Z,5.25
2023-07-18T02:10:20.761Z,4.20
2023-07-18T02:12:50.631Z,3.10
2023-07-18T02:15:18.534Z,5.30
2023-07-18T02:17:46.811Z,3.53
2023-07-18T02:20:15.578Z,5.43
2023-07-18T02:22:45.928Z,5.38
2023-07-18T02:25:16.278Z,4.25
2023-07-18T02:27:44.137Z,3.65
2023-07-18T02:30:14.209Z,3.83
2023-07-18T02:32:43.374Z,4.72
2023-07-18T02:35:12.616Z,4.60
2023-07-18T02:37:40.482Z,4.43
2023-07-18T02:40:11.000Z,4.45
2023-07-18T02:42:40.326Z,3.97
2023-07-18T02:45:10.929Z,4.07
2023-07-18T02:47:41.495Z,4.13
2023-07-18T02:50:12.082Z,5.25
2023-07-18T02:52:40.398Z,4.70
2023-07-18T02:55:09.324Z,3.22
2023-07-18T02:57:37.616Z,4.18
2023-07-18T03:00:18.872Z,6.15
2023-07-18T03:02:49.461Z,5.57
2023-07-18T03:05:18.126Z,3.83
2023-07-18T03:07:47.546Z,6.00
2023-07-18T03:10:15.775Z,5.75
2023-07-18T03:12:43.571Z,5.57
2023-07-18T03:15:12.137Z,4.97
2023-07-18T03:17:39.935Z,3.55
2023-07-18T03:20:17.793Z,7.85
2023-07-18T03:22:46.234Z,6.10
2023-07-18T03:25:14.445Z,6.47
2023-07-18T03:27:42.317Z,4.70
2023-07-18T03:30:11.886Z,3.83
2023-07-18T03:32:41.044Z,4.00
2023-07-18T03:35:12.070Z,4.97
2023-07-18T03:37:39.990Z,4.63
2023-07-18T03:40:13.732Z,4.88
2023-07-18T03:42:43.412Z,5.50
2023-07-18T03:45:14.239Z,5.20
2023-07-18T03:47:45.442Z,3.47
2023-07-18T03:50:17.848Z,4.07
2023-07-18T03:52:46.141Z,9.25
2023-07-18T03:55:14.029Z,4.03
2023-07-18T03:57:45.714Z,6.43
2023-07-18T04:00:19.239Z,3.63
2023-07-18T04:02:50.548Z,5.18
2023-07-18T04:05:20.453Z,5.28
2023-07-18T04:07:49.078Z,8.07
2023-07-18T04:10:18.829Z,4.70
2023-07-18T04:12:46.791Z,5.78
2023-07-18T04:15:15.881Z,5.03
2023-07-18T04:17:46.502Z,5.47
2023-07-18T04:20:15.117Z,5.05
2023-07-18T04:22:44.283Z,3.95
2023-07-18T04:25:12.364Z,4.88
2023-07-18T04:27:40.138Z,5.60
2023-07-18T04:30:09.495Z,3.75
2023-07-18T04:32:37.263Z,4.80
2023-07-18T04:35:07.271Z,4.25
2023-07-18T04:37:35.175Z,3.72
2023-07-18T04:40:07.003Z,4.78
2023-07-18T04:42:37.156Z,4.38
2023-07-18T04:45:07.208Z,4.30
2023-07-18T04:47:35.128Z,4.65
2023-07-18T04:50:02.942Z,4.35
2023-07-18T04:52:30.687Z,5.03
2023-07-18T04:54:58.380Z,4.53
2023-07-18T04:57:30.387Z,6.63
2023-07-18T04:59:58.098Z,3.38
2023-07-18T05:02:25.886Z,3.17
2023-07-18T05:04:53.646Z,4.18
2023-07-18T05:07:21.335Z,3.53
2023-07-18T05:09:49.059Z,4.22
2023-07-18T05:12:16.819Z,4.47
2023-07-18T05:14:45.956Z,4.70
2023-07-18T05:17:13.657Z,4.70
2023-07-18T05:19:41.423Z,3.58
2023-07-18T05:22:09.182Z,4.30
2023-07-18T05:24:37.390Z,3.20
2023-07-18T05:27:05.351Z,4.28
2023-07-18T05:29:33.047Z,4.75
2023-07-18T05:32:02.318Z,3.75
2023-07-18T05:34:30.638Z,5.85
2023-07-18T05:36:58.441Z,5.45
2023-07-18T05:39:26.145Z,4.65
2023-07-18T05:41:53.864Z,6.38
2023-07-18T05:44:21.561Z,6.90
2023-07-18T05:46:49.304Z,4.93
2023-07-18T05:49:18.402Z,4.22
2023-07-18T05:51:46.287Z,3.80
2023-07-18T05:54:13.970Z,5.93
2023-07-18T05:56:42.850Z,3.38
2023-07-18T05:59:10.573Z,4.05
2023-07-18T06:01:38.350Z,5.53
2023-07-18T06:04:06.171Z,4.28
2023-07-18T06:06:35.793Z,4.57
2023-07-18T06:09:03.796Z,5.80
2023-07-18T06:11:31.645Z,4.10
2023-07-18T06:14:00.983Z,5.38
2023-07-18T06:16:29.475Z,5.75
2023-07-18T06:18:57.343Z,3.90
2023-07-18T06:21:28.449Z,4.20
2023-07-18T06:24:08.431Z,4.88
2023-07-18T06:26:49.839Z,4.82
2023-07-18T06:29:18.235Z,5.82
2023-07-18T06:31:46.029Z,4.47
2023-07-18T06:34:13.776Z,3.80
2023-07-18T06:36:41.574Z,4.95
2023-07-18T06:39:12.773Z,5.22
2023-07-18T06:41:40.470Z,3.08
2023-07-18T06:44:09.191Z,6.32
2023-07-18T06:46:37.382Z,5.72
2023-07-18T06:49:05.340Z,8.32
2023-07-18T06:51:33.327Z,5.18
2023-07-18T06:54:01.038Z,4.85
2023-07-18T06:56:30.116Z,6.90
2023-07-18T06:58:57.796Z,4.10
2023-07-18T07:01:28.182Z,5.35
2023-07-18T07:03:57.365Z,6.43
2023-07-18T07:06:25.303Z,4.55
2023-07-18T07:08:53.360Z,5.95
2023-07-18T07:11:21.529Z,4.65
2023-07-18T07:13:50.822Z,4.28
2023-07-18T07:16:18.600Z,3.30
2023-07-18T07:18:50.367Z,6.20
2023-07-18T07:21:18.324Z,5.00
2023-07-18T07:23:46.238Z,5.90
2023-07-18T07:26:13.975Z,5.82
2023-07-18T07:28:44.872Z,5.47
2023-07-18T07:31:16.001Z,5.55
2023-07-18T07:33:43.896Z,5.53
2023-07-18T07:36:11.645Z,6.22
2023-07-18T07:38:39.329Z,6.50
2023-07-18T07:41:07.328Z,5.03
2023-07-18T07:43:35.250Z,4.95
2023-07-18T07:46:03.505Z,5.93
2023-07-18T07:48:32.662Z,5.78
2023-07-18T07:51:01.043Z,3.20
2023-07-18T07:53:28.889Z,3.53
2023-07-18T07:55:56.904Z,2.90
2023-07-18T07:58:24.644Z,2.85
2023-07-18T08:00:52.712Z,3.92
2023-07-18T08:03:20.479Z,4.35
2023-07-18T08:05:49.763Z,4.50
2023-07-18T08:08:18.934Z,4.40
2023-07-18T08:10:46.716Z,3.85
2023-07-18T08:13:18.093Z,4.38
2023-07-18T08:15:46.112Z,4.05
2023-07-18T08:18:14.309Z,5.18
2023-07-18T08:20:42.092Z,4.35
2023-07-18T08:23:12.227Z,3.75
2023-07-18T08:25:40.019Z,5.22
2023-07-18T08:28:07.711Z,4.63
2023-07-18T08:30:35.419Z,4.40
2023-07-18T08:33:03.567Z,2.88
2023-07-18T08:35:34.372Z,4.18
2023-07-18T08:38:04.737Z,3.88
2023-07-18T08:40:34.442Z,3.83
2023-07-18T08:43:02.189Z,5.78
2023-07-18T08:45:40.512Z,3.30
2023-07-18T08:48:08.532Z,4.35
2023-07-18T08:50:37.968Z,2.58
2023-07-18T08:53:06.477Z,3.30
2023-07-18T08:55:39.126Z,3.92
2023-07-18T08:58:07.488Z,2.15
2023-07-18T09:00:35.257Z,3.38
2023-07-18T09:03:03.035Z,3.47
2023-07-18T09:05:33.832Z,5.07
2023-07-18T09:08:03.113Z,3.97
2023-07-18T09:10:31.231Z,3.40
2023-07-18T09:13:06.883Z,2.58
2023-07-18T09:15:35.453Z,3.05
2023-07-18T09:18:04.857Z,2.90
2023-07-18T09:20:33.464Z,3.17
2023-07-18T09:23:04.437Z,4.63
2023-07-18T09:25:32.695Z,4.28
2023-07-18T09:28:01.929Z,8.63
2023-07-18T09:30:31.305Z,3.55
2023-07-18T09:32:59.208Z,2.67
2023-07-18T09:35:29.032Z,3.72
2023-07-18T09:37:57.471Z,4.15
2023-07-18T09:40:25.249Z,2.50
2023-07-18T09:42:53.030Z,4.00
2023-07-18T09:45:22.989Z,2.28
2023-07-18T09:47:51.041Z,2.80
2023-07-18T09:50:18.817Z,4.40
2023-07-18T09:52:50.536Z,2.17
2023-07-18T09:55:23.192Z,2.78
2023-07-18T09:57:53.028Z,2.60
2023-07-18T10:00:22.179Z,2.15
2023-07-18T10:02:50.070Z,3.08
2023-07-18T10:05:18.006Z,4.32
2023-07-18T10:07:46.731Z,2.13
2023-07-18T10:10:14.680Z,1.42
2023-07-18T10:13:01.466Z,3.42
2023-07-18T10:15:31.652Z,2.08
2023-07-18T10:18:18.030Z,2.38
2023-07-18T10:20:58.862Z,2.38
2023-07-18T10:23:41.893Z,2.30
2023-07-18T10:26:10.371Z,1.92
2023-07-18T10:28:46.388Z,2.35
2023-07-18T10:31:34.817Z,3.10
2023-07-18T10:34:10.467Z,2.72
2023-07-18T10:36:38.730Z,1.73
2023-07-18T10:39:12.456Z,2.83
2023-07-18T10:41:44.068Z,5.45
2023-07-18T10:44:15.465Z,2.10
2023-07-18T10:46:45.209Z,1.75
2023-07-18T10:49:13.062Z,1.35
2023-07-18T10:51:40.790Z,3.80
2023-07-18T10:54:08.587Z,3.30
2023-07-18T10:56:36.320Z,1.77
2023-07-18T10:59:04.346Z,1.75
2023-07-18T11:01:32.195Z,1.38
2023-07-18T11:04:07.311Z,2.17
2023-07-18T11:06:35.341Z,1.38
2023-07-18T11:09:05.516Z,1.48
2023-07-18T11:11:33.524Z,2.28
2023-07-18T11:14:01.387Z,2.80
2023-07-18T11:16:29.264Z,1.95
2023-07-18T11:18:57.097Z,2.22
2023-07-18T11:21:26.300Z,1.83
2023-07-18T11:23:55.378Z,1.65
2023-07-18T11:26:23.114Z,2.22
2023-07-18T11:28:52.140Z,4.05
2023-07-18T11:33:56.633Z,1.67
2023-07-18T11:36:29.284Z,2.30
2023-07-18T11:38:59.198Z,4.18
2023-07-18T11:41:34.410Z,2.85
2023-07-18T11:44:03.504Z,1.88
2023-07-18T11:46:38.059Z,5.18
2023-07-18T11:49:05.972Z,2.28
2023-07-18T11:51:35.522Z,1.98
2023-07-18T11:54:04.452Z,2.25
2023-07-18T11:56:32.401Z,2.53
2023-07-18T11:59:00.192Z,4.25
2023-07-18T12:01:28.012Z,3.40
2023-07-18T12:03:56.323Z,2.72
2023-07-18T12:06:24.504Z,2.33
2023-07-18T12:08:54.008Z,4.57
2023-07-18T12:11:22.443Z,1.60
2023-07-18T12:13:50.189Z,2.20
2023-07-18T12:16:17.901Z,3.38
2023-07-18T12:18:45.654Z,1.67
2023-07-18T12:21:14.802Z,1.45
2023-07-18T12:23:43.526Z,3.30
2023-07-18T12:26:12.841Z,1.60
2023-07-18T12:28:40.550Z,1.67
2023-07-18T12:31:10.161Z,3.67
2023-07-18T12:33:39.504Z,1.77
2023-07-18T12:36:07.564Z,2.67
2023-07-18T12:38:35.347Z,1.55
2023-07-18T12:41:03.185Z,2.40
2023-07-18T12:43:32.411Z,2.33
2023-07-18T12:46:00.135Z,2.10
2023-07-18T12:48:28.008Z,2.38
2023-07-18T12:50:55.844Z,2.53
2023-07-18T12:53:23.587Z,1.98
2023-07-18T12:55:51.308Z,3.28
2023-07-18T12:58:19.086Z,1.42
2023-07-18T13:00:48.423Z,2.08
2023-07-18T13:03:16.192Z,1.70
2023-07-18T13:05:44.350Z,1.50
2023-07-18T13:08:12.138Z,2.85
2023-07-18T13:10:39.853Z,1.80
2023-07-18T13:13:08.391Z,3.58
2023-07-18T13:15:36.095Z,1.65
2023-07-18T13:18:05.288Z,2.63
2023-07-18T13:20:33.091Z,1.73
2023-07-18T13:23:00.889Z,1.98
2023-07-18T13:25:28.672Z,3.22
2023-07-18T13:27:56.470Z,3.45
2023-07-18T13:30:24.963Z,2.72
2023-07-18T13:32:52.776Z,3.13
2023-07-18T13:35:21.889Z,2.22
2023-07-18T13:37:49.624Z,2.92
2023-07-18T13:40:17.452Z,2.83
2023-07-18T13:42:45.233Z,2.72
2023-07-18T13:45:13.065Z,3.08
2023-07-18T13:47:40.859Z,2.40
2023-07-18T13:52:42.048Z,3.95
2023-07-18T13:55:10.502Z,2.30
2023-07-18T13:57:38.236Z,2.35
2023-07-18T14:00:07.201Z,1.80
2023-07-18T14:02:35.083Z,1.80
2023-07-18T14:05:03.113Z,2.08
2023-07-18T14:07:30.832Z,1.67
2023-07-18T14:09:59.897Z,2.90
2023-07-18T14:12:27.649Z,3.75
2023-07-18T14:14:55.466Z,2.65
2023-07-18T14:17:23.214Z,3.00
2023-07-18T14:19:50.958Z,3.00
2023-07-18T14:22:19.752Z,3.35
2023-07-18T14:24:48.546Z,3.35
2023-07-18T14:27:17.711Z,3.25
2023-07-18T14:29:45.432Z,2.08
2023-07-18T14:32:13.455Z,3.15
2023-07-18T14:34:41.371Z,1.92
2023-07-18T14:37:09.063Z,2.30
2023-07-18T14:39:39.296Z,2.00
2023-07-18T14:42:07.603Z,1.88
2023-07-18T14:44:37.958Z,1.98
2023-07-18T14:47:06.011Z,2.70
2023-07-18T14:49:33.721Z,2.20
2023-07-18T14:52:01.450Z,3.25
2023-07-18T14:54:29.139Z,2.10
2023-07-18T14:56:57.118Z,1.98
2023-07-18T14:59:24.935Z,2.40
2023-07-18T15:01:54.043Z,3.40
2023-07-18T15:04:21.941Z,1.73
2023-07-18T15:06:50.991Z,3.17
2023-07-18T15:09:21.735Z,3.10
2023-07-18T15:11:49.605Z,2.22
2023-07-18T15:14:17.796Z,2.45
2023-07-18T15:16:45.774Z,2.83
2023-07-18T15:19:14.883Z,3.38
2023-07-18T15:21:42.622Z,2.95
2023-07-18T15:24:10.394Z,3.13
2023-07-18T15:26:38.917Z,2.42
2023-07-18T15:29:06.656Z,2.00
2023-07-18T15:31:34.492Z,1.58
2023-07-18T15:34:02.244Z,2.30
2023-07-18T15:36:31.277Z,2.22
2023-07-18T15:38:58.968Z,2.85
2023-07-18T15:41:26.721Z,2.55
2023-07-18T15:43:55.142Z,2.38
2023-07-18T15:46:23.115Z,2.80
2023-07-18T15:48:51.105Z,2.22
2023-07-18T15:51:18.813Z,1.73
2023-07-18T15:53:47.994Z,4.72
2023-07-18T15:56:17.861Z,2.00
2023-07-18T15:58:45.822Z,2.97
2023-07-18T16:01:13.654Z,2.30
2023-07-18T16:03:41.459Z,2.17
2023-07-18T16:06:09.272Z,3.50
2023-07-18T16:08:36.997Z,2.85
2023-07-18T16:11:06.143Z,3.58
2023-07-18T16:13:33.868Z,1.77
2023-07-18T16:16:01.578Z,2.08
2023-07-18T16:18:29.297Z,1.98
2023-07-18T16:20:56.969Z,2.80
2023-07-18T16:23:24.722Z,2.30
2023-07-18T16:25:52.544Z,1.63
2023-07-18T16:28:21.712Z,1.40
2023-07-18T16:30:49.483Z,2.05
2023-07-18T16:33:17.325Z,1.65
2023-07-18T16:35:45.572Z,1.70
2023-07-18T16:38:13.330Z,2.08
2023-07-18T16:40:41.153Z,2.70
2023-07-18T16:43:08.953Z,1.92
2023-07-18T16:45:39.766Z,3.63
2023-07-18T16:48:07.664Z,1.85
2023-07-18T16:50:36.943Z,2.30
2023-07-18T16:53:05.298Z,2.08
2023-07-18T16:55:33.021Z,3.22
2023-07-18T16:58:00.740Z,2.25
2023-07-18T17:00:28.985Z,3.40
2023-07-18T17:02:58.164Z,1.85
2023-07-18T17:05:26.056Z,1.67
2023-07-18T17:07:53.779Z,3.03
2023-07-18T17:10:21.648Z,2.28
2023-07-18T17:12:49.366Z,1.88
2023-07-18T17:15:17.404Z,2.13
2023-07-18T17:17:45.174Z,2.03
2023-07-18T17:20:14.892Z,2.83
2023-07-18T17:22:42.781Z,7.93
2023-07-18T17:25:11.007Z,2.83
2023-07-18T17:27:38.864Z,3.33
2023-07-18T17:30:08.620Z,3.40
2023-07-18T17:32:36.368Z,2.03
2023-07-18T17:35:04.388Z,1.65
2023-07-18T17:37:33.555Z,2.10
2023-07-18T17:40:02.070Z,1.52
2023-07-18T17:42:30.294Z,2.33
2023-07-18T17:44:58.116Z,1.58
2023-07-18T17:47:26.014Z,2.13
2023-07-18T17:49:53.824Z,1.10
2023-07-18T17:52:21.566Z,1.80
2023-07-18T17:54:50.675Z,2.33
2023-07-18T17:57:18.403Z,2.17
2023-07-18T17:59:46.194Z,1.75
2023-07-18T18:02:14.147Z,1.52
2023-07-18T18:04:41.916Z,2.17
2023-07-18T18:07:11.112Z,1.52
2023-07-18T18:09:41.274Z,1.40
2023-07-18T18:12:10.568Z,2.80
2023-07-18T18:14:39.127Z,1.60
2023-07-18T18:17:07.549Z,1.20
2023-07-18T18:19:35.348Z,6.10
2023-07-18T18:22:03.219Z,2.72
2023-07-18T18:24:30.965Z,1.63
2023-07-18T18:26:58.703Z,2.03
2023-07-18T18:29:29.586Z,3.00
2023-07-18T18:31:57.340Z,1.83
2023-07-18T18:34:25.071Z,1.45
2023-07-18T18:36:52.785Z,1.48
2023-07-18T18:39:21.857Z,2.45
2023-07-18T18:41:49.634Z,1.30
2023-07-18T18:44:17.347Z,1.23
2023-07-18T18:46:46.633Z,1.67
2023-07-18T18:49:26.060Z,1.52
2023-07-18T18:51:55.303Z,2.80
2023-07-18T18:54:23.480Z,1.63
2023-07-18T18:56:53.226Z,2.40
2023-07-18T18:59:21.101Z,1.70
2023-07-18T19:01:51.352Z,2.35
2023-07-18T19:04:19.317Z,1.42
2023-07-18T19:06:47.080Z,1.92
2023-07-18T19:09:14.879Z,5.75
2023-07-18T19:11:42.587Z,1.15
2023-07-18T19:14:10.344Z,1.13
2023-07-18T19:16:40.091Z,1.33
2023-07-18T19:19:11.667Z,1.92
2023-07-18T19:21:39.406Z,2.10
2023-07-18T19:24:09.171Z,1.70
2023-07-18T19:26:36.961Z,1.65
2023-07-18T19:29:04.738Z,1.52
2023-07-18T19:31:32.565Z,4.78
2023-07-18T19:34:00.337Z,3.42
2023-07-18T19:36:29.489Z,1.50
2023-07-18T19:38:57.206Z,3.88
2023-07-18T19:41:25.271Z,1.73
2023-07-18T19:43:53.042Z,2.60
2023-07-18T19:46:20.812Z,2.83
2023-07-18T19:48:48.579Z,1.70
2023-07-18T19:51:16.350Z,1.65
2023-07-18T19:53:45.428Z,2.33
2023-07-18T19:56:13.739Z,1.52
2023-07-18T19:58:41.616Z,2.03
2023-07-18T20:01:09.514Z,2.00
2023-07-18T20:03:52.286Z,2.47
2023-07-18T20:06:24.846Z,1.25
2023-07-18T20:08:53.960Z,1.25
2023-07-18T20:11:22.118Z,3.20
2023-07-18T20:13:50.083Z,1.88
2023-07-18T20:16:19.059Z,2.65
2023-07-18T20:18:50.322Z,3.13
2023-07-18T20:21:19.798Z,1.83
2023-07-18T20:23:47.845Z,3.42
2023-07-18T20:26:16.952Z,2.97
2023-07-18T20:28:44.692Z,1.70
2023-07-18T20:31:12.627Z,1.85
2023-07-18T20:33:43.470Z,2.13
2023-07-18T20:36:11.460Z,2.55
2023-07-18T20:38:39.398Z,3.05
2023-07-18T20:41:09.788Z,2.72
2023-07-18T20:43:41.654Z,4.22
2023-07-18T20:46:12.139Z,2.55
2023-07-18T20:48:39.973Z,1.98
2023-07-18T20:51:08.155Z,1.77
2023-07-18T20:53:35.900Z,1.92
2023-07-18T20:56:03.667Z,1.30
2023-07-18T20:58:31.779Z,1.92
2023-07-18T21:01:01.657Z,1.85
2023-07-18T21:03:29.796Z,1.50
2023-07-18T21:05:57.650Z,2.60
2023-07-18T21:08:25.410Z,2.03
2023-07-18T21:10:53.136Z,1.55
2023-07-18T21:13:20.829Z,2.00
2023-07-18T21:15:48.574Z,3.25
2023-07-18T21:18:17.684Z,3.08
2023-07-18T21:20:45.447Z,2.30
2023-07-18T21:23:13.281Z,2.75
2023-07-18T21:25:41.236Z,3.10
2023-07-18T21:28:09.256Z,2.45
2023-07-18T21:30:36.976Z,1.40
2023-07-18T21:33:04.857Z,2.20
2023-07-18T21:35:33.987Z,2.88
2023-07-18T21:38:01.866Z,1.95
2023-07-18T21:40:29.753Z,2.25
2023-07-18T21:42:57.559Z,1.90
2023-07-18T21:45:25.397Z,1.35
2023-07-18T21:47:53.402Z,2.13
2023-07-18T21:50:21.394Z,2.20
2023-07-18T21:52:50.480Z,2.55
2023-07-18T21:55:18.365Z,1.73
2023-07-18T21:57:46.088Z,1.58
2023-07-18T22:00:15.623Z,2.17
2023-07-18T22:02:43.474Z,1.77
2023-07-18T22:05:11.290Z,2.40
2023-07-18T22:07:39.072Z,1.65
2023-07-18T22:10:09.969Z,1.60
2023-07-18T22:12:38.053Z,2.30
2023-07-18T22:15:06.842Z,2.80
2023-07-18T22:17:34.695Z,1.88
2023-07-18T22:20:02.702Z,2.15
2023-07-18T22:22:30.477Z,1.52
2023-07-18T22:24:58.606Z,2.75
2023-07-18T22:27:27.753Z,3.10
2023-07-18T22:29:55.511Z,2.28
2023-07-18T22:32:23.260Z,1.73
2023-07-18T22:34:51.027Z,2.78
2023-07-18T22:37:18.730Z,1.50
2023-07-18T22:39:48.929Z,2.88
2023-07-18T22:42:17.657Z,1.65
2023-07-18T22:44:47.818Z,2.65
2023-07-18T22:47:16.523Z,2.55
2023-07-18T22:49:44.543Z,1.35
2023-07-18T22:52:18.642Z,2.13
2023-07-18T22:54:47.251Z,2.05
2023-07-18T22:57:15.259Z,2.03
2023-07-18T22:59:43.053Z,1.77
2023-07-18T23:02:12.191Z,2.33
2023-07-18T23:04:40.147Z,1.75
2023-07-18T23:07:08.180Z,1.65
2023-07-18T23:09:35.994Z,2.05
2023-07-18T23:12:04.460Z,2.80
2023-07-18T23:14:32.454Z,1.75
2023-07-18T23:17:00.281Z,2.70
2023-07-18T23:19:29.534Z,2.03
2023-07-18T23:21:57.239Z,1.65
2023-07-18T23:24:24.932Z,1.73
2023-07-18T23:26:52.653Z,1.20
2023-07-18T23:29:20.403Z,1.48
2023-07-18T23:31:48.109Z,2.15
2023-07-18T23:34:15.830Z,1.50
2023-07-18T23:36:44.996Z,1.77
2023-07-18T23:43:00.624Z,1.98
2023-07-18T23:45:29.163Z,2.30
2023-07-18T23:47:56.940Z,1.65
2023-07-18T23:50:24.848Z,2.85
2023-07-18T23:52:57.654Z,1.23
2023-07-18T23:55:25.539Z,2.40
2023-07-18T23:57:53.362Z,1.27
